Terminal Aerodrome Forecast
Issued by NWS

Home | Current Version | Previous Version | Text Only | Print | Product List | Glossary On
Versions: 1 2 3 4 5 6 7 8 9 10 11 12 13 14 15 16
000
FTAK31 PAJN 241142 RRA
TAFAWG
TAF
PAWG 241142Z 2412/2512 22004KT P6SM BKN025 OVC035
     FM241800 10006KT P6SM -SN SCT020 BKN040
     FM242000 10012KT 2SM -SN BR SCT010 OVC025 WS020/18030KT
     FM250600 16007KT 5SM -SHSN BR SCT015 OVC025
      AMD LTD TO CLD VIS AND WIND 2412/2415=

USA.gov is the U.S. government's official web portal to all federal, state and local government web resources and services.